sensor_id;sensor_type;location;lat;lon;timestamp;P1;durP1;ratioP1;P2;durP2;ratioP2
45728;SDS011;31439;53.512;10.206;2024-01-10T00:01:59;17.80;;;10.77;;
45728;SDS011;31439;53.512;10.206;2024-01-10T00:04:25;17.33;;;10.70;;
45728;SDS011;31439;53.512;10.206;2024-01-10T00:06:51;20.20;;;11.40;;
45728;SDS011;31439;53.512;10.206;2024-01-10T00:09:17;20.27;;;11.75;;
45728;SDS011;31439;53.512;10.206;2024-01-10T00:11:43;19.80;;;11.05;;
45728;SDS011;31439;53.512;10.206;2024-01-10T00:14:10;19.17;;;10.93;;
45728;SDS011;31439;53.512;10.206;2024-01-10T00:16:36;18.52;;;10.38;;
45728;SDS011;31439;53.512;10.206;2024-01-10T00:19:02;19.33;;;11.02;;
45728;SDS011;31439;53.512;10.206;2024-01-10T00:21:28;16.60;;;10.77;;
45728;SDS011;31439;53.512;10.206;2024-01-10T00:23:54;15.60;;;10.45;;
45728;SDS011;31439;53.512;10.206;2024-01-10T00:26:20;18.77;;;11.38;;
45728;SDS011;31439;53.512;10.206;2024-01-10T00:28:46;18.20;;;11.60;;
45728;SDS011;31439;53.512;10.206;2024-01-10T00:31:12;20.90;;;11.60;;
45728;SDS011;31439;53.512;10.206;2024-01-10T00:33:39;18.40;;;10.90;;
45728;SDS011;31439;53.512;10.206;2024-01-10T00:36:05;20.30;;;12.20;;
45728;SDS011;31439;53.512;10.206;2024-01-10T00:38:31;22.25;;;11.88;;
45728;SDS011;31439;53.512;10.206;2024-01-10T00:40:57;18.20;;;11.43;;
45728;SDS011;31439;53.512;10.206;2024-01-10T00:43:23;19.85;;;11.07;;
45728;SDS011;31439;53.512;10.206;2024-01-10T00:45:49;19.20;;;12.25;;
45728;SDS011;31439;53.512;10.206;2024-01-10T00:48:15;21.23;;;12.10;;
45728;SDS011;31439;53.512;10.206;2024-01-10T00:50:45;18.27;;;10.82;;
45728;SDS011;31439;53.512;10.206;2024-01-10T00:53:11;18.30;;;11.90;;
45728;SDS011;31439;53.512;10.206;2024-01-10T00:55:51;18.08;;;11.02;;
45728;SDS011;31439;53.512;10.206;2024-01-10T00:58:17;19.42;;;11.57;;
45728;SDS011;31439;53.512;10.206;2024-01-10T01:00:43;18.95;;;12.48;;
45728;SDS011;31439;53.512;10.206;2024-01-10T01:03:09;21.10;;;12.32;;
45728;SDS011;31439;53.512;10.206;2024-01-10T01:05:35;22.08;;;12.60;;
45728;SDS011;31439;53.512;10.206;2024-01-10T01:08:01;20.95;;;12.30;;
45728;SDS011;31439;53.512;10.206;2024-01-10T01:10:27;18.17;;;10.57;;
45728;SDS011;31439;53.512;10.206;2024-01-10T01:12:53;19.38;;;11.95;;
45728;SDS011;31439;53.512;10.206;2024-01-10T01:15:20;18.65;;;10.40;;
45728;SDS011;31439;53.512;10.206;2024-01-10T01:17:46;18.98;;;11.40;;
45728;SDS011;31439;53.512;10.206;2024-01-10T01:20:12;17.55;;;10.77;;
45728;SDS011;31439;53.512;10.206;2024-01-10T01:22:38;19.42;;;10.68;;
45728;SDS011;31439;53.512;10.206;2024-01-10T01:25:04;17.40;;;10.20;;
45728;SDS011;31439;53.512;10.206;2024-01-10T01:27:30;18.38;;;10.52;;
45728;SDS011;31439;53.512;10.206;2024-01-10T01:29:56;20.23;;;10.93;;
45728;SDS011;31439;53.512;10.206;2024-01-10T01:32:22;21.48;;;11.77;;
45728;SDS011;31439;53.512;10.206;2024-01-10T01:34:48;20.30;;;12.23;;
45728;SDS011;31439;53.512;10.206;2024-01-10T01:37:14;21.08;;;12.18;;
45728;SDS011;31439;53.512;10.206;2024-01-10T01:39:40;22.55;;;12.43;;
45728;SDS011;31439;53.512;10.206;2024-01-10T01:42:06;22.45;;;12.43;;
45728;SDS011;31439;53.512;10.206;2024-01-10T01:44:32;21.05;;;12.48;;
45728;SDS011;31439;53.512;10.206;2024-01-10T01:46:58;22.73;;;12.63;;
45728;SDS011;31439;53.512;10.206;2024-01-10T01:49:25;23.77;;;13.13;;
45728;SDS011;31439;53.512;10.206;2024-01-10T01:51:51;22.55;;;12.60;;
45728;SDS011;31439;53.512;10.206;2024-01-10T01:54:18;23.48;;;12.57;;
45728;SDS011;31439;53.512;10.206;2024-01-10T01:56:45;27.55;;;13.35;;
45728;SDS011;31439;53.512;10.206;2024-01-10T01:59:11;22.30;;;13.00;;
45728;SDS011;31439;53.512;10.206;2024-01-10T02:01:37;27.00;;;13.77;;
45728;SDS011;31439;53.512;10.206;2024-01-10T02:04:03;23.45;;;12.73;;
45728;SDS011;31439;53.512;10.206;2024-01-10T02:06:29;24.02;;;12.52;;
45728;SDS011;31439;53.512;10.206;2024-01-10T02:08:56;23.25;;;12.85;;
45728;SDS011;31439;53.512;10.206;2024-01-10T02:11:22;21.95;;;12.48;;
45728;SDS011;31439;53.512;10.206;2024-01-10T02:13:49;25.48;;;12.63;;
45728;SDS011;31439;53.512;10.206;2024-01-10T02:16:16;23.58;;;12.20;;
45728;SDS011;31439;53.512;10.206;2024-01-10T02:18:42;22.67;;;12.05;;
45728;SDS011;31439;53.512;10.206;2024-01-10T02:21:08;22.88;;;12.05;;
45728;SDS011;31439;53.512;10.206;2024-01-10T02:23:34;23.58;;;12.52;;
45728;SDS011;31439;53.512;10.206;2024-01-10T02:26:00;19.40;;;11.88;;
45728;SDS011;31439;53.512;10.206;2024-01-10T02:28:27;20.23;;;11.88;;
45728;SDS011;31439;53.512;10.206;2024-01-10T02:30:53;21.85;;;11.02;;
45728;SDS011;31439;53.512;10.206;2024-01-10T02:33:20;19.65;;;12.07;;
45728;SDS011;31439;53.512;10.206;2024-01-10T02:35:46;23.67;;;12.57;;
45728;SDS011;31439;53.512;10.206;2024-01-10T02:38:12;20.92;;;11.60;;
45728;SDS011;31439;53.512;10.206;2024-01-10T02:40:38;23.38;;;12.05;;
45728;SDS011;31439;53.512;10.206;2024-01-10T02:43:04;23.08;;;12.18;;
45728;SDS011;31439;53.512;10.206;2024-01-10T02:45:32;24.40;;;12.93;;
45728;SDS011;31439;53.512;10.206;2024-01-10T02:47:58;23.98;;;12.25;;
45728;SDS011;31439;53.512;10.206;2024-01-10T02:50:24;20.55;;;11.32;;
45728;SDS011;31439;53.512;10.206;2024-01-10T02:52:50;20.25;;;11.60;;
45728;SDS011;31439;53.512;10.206;2024-01-10T02:55:16;23.35;;;12.40;;
45728;SDS011;31439;53.512;10.206;2024-01-10T02:57:42;21.42;;;11.65;;
45728;SDS011;31439;53.512;10.206;2024-01-10T03:00:08;21.63;;;11.95;;
45728;SDS011;31439;53.512;10.206;2024-01-10T03:02:35;20.45;;;11.20;;
45728;SDS011;31439;53.512;10.206;2024-01-10T03:05:01;20.08;;;11.68;;
45728;SDS011;31439;53.512;10.206;2024-01-10T03:07:27;21.58;;;12.77;;
45728;SDS011;31439;53.512;10.206;2024-01-10T03:09:53;20.83;;;11.30;;
45728;SDS011;31439;53.512;10.206;2024-01-10T03:12:18;20.38;;;11.55;;
45728;SDS011;31439;53.512;10.206;2024-01-10T03:14:44;20.42;;;12.00;;
45728;SDS011;31439;53.512;10.206;2024-01-10T03:17:10;20.25;;;12.68;;
45728;SDS011;31439;53.512;10.206;2024-01-10T03:19:36;21.55;;;12.13;;
45728;SDS011;31439;53.512;10.206;2024-01-10T03:22:07;21.30;;;12.07;;
45728;SDS011;31439;53.512;10.206;2024-01-10T03:24:33;19.33;;;11.35;;
45728;SDS011;31439;53.512;10.206;2024-01-10T03:26:59;21.42;;;11.27;;
45728;SDS011;31439;53.512;10.206;2024-01-10T03:29:25;22.23;;;11.75;;
45728;SDS011;31439;53.512;10.206;2024-01-10T03:31:51;20.75;;;11.43;;
45728;SDS011;31439;53.512;10.206;2024-01-10T03:34:17;20.95;;;11.88;;
45728;SDS011;31439;53.512;10.206;2024-01-10T03:36:43;20.45;;;10.65;;
45728;SDS011;31439;53.512;10.206;2024-01-10T03:39:09;20.35;;;11.32;;
45728;SDS011;31439;53.512;10.206;2024-01-10T03:41:35;18.70;;;10.52;;
45728;SDS011;31439;53.512;10.206;2024-01-10T03:44:01;17.20;;;9.75;;
45728;SDS011;31439;53.512;10.206;2024-01-10T03:46:27;18.08;;;10.50;;
45728;SDS011;31439;53.512;10.206;2024-01-10T03:48:53;21.27;;;11.75;;
45728;SDS011;31439;53.512;10.206;2024-01-10T03:51:19;19.65;;;11.32;;
45728;SDS011;31439;53.512;10.206;2024-01-10T03:53:46;21.83;;;11.57;;
45728;SDS011;31439;53.512;10.206;2024-01-10T03:56:14;19.20;;;10.35;;
45728;SDS011;31439;53.512;10.206;2024-01-10T03:58:40;23.92;;;12.27;;
45728;SDS011;31439;53.512;10.206;2024-01-10T04:01:06;21.00;;;11.25;;
45728;SDS011;31439;53.512;10.206;2024-01-10T04:03:33;24.02;;;12.05;;
45728;SDS011;31439;53.512;10.206;2024-01-10T04:05:59;19.75;;;11.30;;
45728;SDS011;31439;53.512;10.206;2024-01-10T04:08:25;20.13;;;11.73;;
45728;SDS011;31439;53.512;10.206;2024-01-10T04:10:51;23.30;;;11.55;;
45728;SDS011;31439;53.512;10.206;2024-01-10T04:13:17;21.15;;;11.90;;
45728;SDS011;31439;53.512;10.206;2024-01-10T04:15:43;20.10;;;11.02;;
45728;SDS011;31439;53.512;10.206;2024-01-10T04:18:09;21.42;;;11.07;;
45728;SDS011;31439;53.512;10.206;2024-01-10T04:20:35;17.50;;;10.45;;
45728;SDS011;31439;53.512;10.206;2024-01-10T04:23:01;17.65;;;10.60;;
45728;SDS011;31439;53.512;10.206;2024-01-10T04:25:27;18.50;;;10.70;;
45728;SDS011;31439;53.512;10.206;2024-01-10T04:27:53;19.65;;;10.85;;
45728;SDS011;31439;53.512;10.206;2024-01-10T04:30:20;18.65;;;10.50;;
45728;SDS011;31439;53.512;10.206;2024-01-10T04:32:46;20.05;;;11.52;;
45728;SDS011;31439;53.512;10.206;2024-01-10T04:35:12;19.95;;;12.13;;
45728;SDS011;31439;53.512;10.206;2024-01-10T04:37:38;18.35;;;10.98;;
45728;SDS011;31439;53.512;10.206;2024-01-10T04:40:04;22.75;;;12.18;;
45728;SDS011;31439;53.512;10.206;2024-01-10T04:42:31;20.85;;;11.45;;
45728;SDS011;31439;53.512;10.206;2024-01-10T04:44:56;19.20;;;11.27;;
45728;SDS011;31439;53.512;10.206;2024-01-10T04:47:22;21.52;;;12.00;;
45728;SDS011;31439;53.512;10.206;2024-01-10T04:49:48;21.90;;;12.10;;
45728;SDS011;31439;53.512;10.206;2024-01-10T04:52:14;19.48;;;11.25;;
45728;SDS011;31439;53.512;10.206;2024-01-10T04:54:40;21.58;;;12.05;;
45728;SDS011;31439;53.512;10.206;2024-01-10T04:57:06;21.55;;;12.35;;
45728;SDS011;31439;53.512;10.206;2024-01-10T04:59:32;21.77;;;11.57;;
45728;SDS011;31439;53.512;10.206;2024-01-10T05:01:59;21.48;;;12.13;;
45728;SDS011;31439;53.512;10.206;2024-01-10T05:04:25;21.73;;;12.18;;
45728;SDS011;31439;53.512;10.206;2024-01-10T05:06:51;21.73;;;12.73;;
45728;SDS011;31439;53.512;10.206;2024-01-10T05:09:17;21.85;;;12.45;;
45728;SDS011;31439;53.512;10.206;2024-01-10T05:11:43;22.77;;;12.82;;
45728;SDS011;31439;53.512;10.206;2024-01-10T05:14:12;20.88;;;12.52;;
45728;SDS011;31439;53.512;10.206;2024-01-10T05:16:38;24.25;;;13.18;;
45728;SDS011;31439;53.512;10.206;2024-01-10T05:19:04;23.00;;;13.60;;
45728;SDS011;31439;53.512;10.206;2024-01-10T05:21:30;21.08;;;12.48;;
45728;SDS011;31439;53.512;10.206;2024-01-10T05:23:56;22.95;;;13.27;;
45728;SDS011;31439;53.512;10.206;2024-01-10T05:26:22;25.92;;;13.57;;
45728;SDS011;31439;53.512;10.206;2024-01-10T05:28:48;22.52;;;12.68;;
45728;SDS011;31439;53.512;10.206;2024-01-10T05:31:14;19.80;;;11.57;;
45728;SDS011;31439;53.512;10.206;2024-01-10T05:33:40;22.10;;;12.70;;
45728;SDS011;31439;53.512;10.206;2024-01-10T05:36:07;20.00;;;11.88;;
45728;SDS011;31439;53.512;10.206;2024-01-10T05:38:36;20.42;;;11.40;;
45728;SDS011;31439;53.512;10.206;2024-01-10T05:41:02;23.80;;;12.50;;
45728;SDS011;31439;53.512;10.206;2024-01-10T05:43:28;22.35;;;11.80;;
45728;SDS011;31439;53.512;10.206;2024-01-10T05:45:54;21.75;;;12.18;;
45728;SDS011;31439;53.512;10.206;2024-01-10T05:48:20;22.50;;;12.57;;
45728;SDS011;31439;53.512;10.206;2024-01-10T05:50:46;24.20;;;12.93;;
45728;SDS011;31439;53.512;10.206;2024-01-10T05:53:12;20.52;;;11.55;;
45728;SDS011;31439;53.512;10.206;2024-01-10T05:55:42;24.15;;;13.18;;
45728;SDS011;31439;53.512;10.206;2024-01-10T05:58:08;23.10;;;12.98;;
45728;SDS011;31439;53.512;10.206;2024-01-10T06:00:34;24.15;;;12.77;;
45728;SDS011;31439;53.512;10.206;2024-01-10T06:03:00;25.90;;;12.38;;
45728;SDS011;31439;53.512;10.206;2024-01-10T06:05:26;26.38;;;13.05;;
45728;SDS011;31439;53.512;10.206;2024-01-10T06:07:52;25.15;;;13.30;;
45728;SDS011;31439;53.512;10.206;2024-01-10T06:10:18;26.58;;;13.50;;
45728;SDS011;31439;53.512;10.206;2024-01-10T06:12:44;23.02;;;13.15;;
45728;SDS011;31439;53.512;10.206;2024-01-10T06:15:10;30.00;;;14.20;;
45728;SDS011;31439;53.512;10.206;2024-01-10T06:17:36;26.13;;;14.07;;
45728;SDS011;31439;53.512;10.206;2024-01-10T06:20:03;26.80;;;13.23;;
45728;SDS011;31439;53.512;10.206;2024-01-10T06:22:29;23.05;;;12.75;;
45728;SDS011;31439;53.512;10.206;2024-01-10T06:24:55;23.95;;;12.93;;
45728;SDS011;31439;53.512;10.206;2024-01-10T06:27:21;22.60;;;12.35;;
45728;SDS011;31439;53.512;10.206;2024-01-10T06:29:47;23.48;;;12.38;;
45728;SDS011;31439;53.512;10.206;2024-01-10T06:32:13;23.02;;;12.93;;
45728;SDS011;31439;53.512;10.206;2024-01-10T06:34:39;23.33;;;11.98;;
45728;SDS011;31439;53.512;10.206;2024-01-10T06:37:05;20.98;;;12.25;;
45728;SDS011;31439;53.512;10.206;2024-01-10T06:39:34;21.85;;;12.32;;
45728;SDS011;31439;53.512;10.206;2024-01-10T06:42:00;22.65;;;12.15;;
45728;SDS011;31439;53.512;10.206;2024-01-10T06:44:28;24.50;;;12.25;;
45728;SDS011;31439;53.512;10.206;2024-01-10T06:46:54;21.67;;;11.65;;
45728;SDS011;31439;53.512;10.206;2024-01-10T06:49:20;21.10;;;12.10;;
45728;SDS011;31439;53.512;10.206;2024-01-10T06:51:46;21.98;;;12.30;;
45728;SDS011;31439;53.512;10.206;2024-01-10T06:54:12;19.33;;;11.27;;
45728;SDS011;31439;53.512;10.206;2024-01-10T06:56:39;20.65;;;11.70;;
45728;SDS011;31439;53.512;10.206;2024-01-10T06:59:06;19.63;;;10.68;;
45728;SDS011;31439;53.512;10.206;2024-01-10T07:01:32;21.02;;;11.93;;
45728;SDS011;31439;53.512;10.206;2024-01-10T07:03:58;18.92;;;11.23;;
45728;SDS011;31439;53.512;10.206;2024-01-10T07:06:24;21.45;;;12.25;;
45728;SDS011;31439;53.512;10.206;2024-01-10T07:08:50;21.75;;;11.90;;
45728;SDS011;31439;53.512;10.206;2024-01-10T07:11:16;23.15;;;12.43;;
45728;SDS011;31439;53.512;10.206;2024-01-10T07:13:42;22.00;;;11.27;;
45728;SDS011;31439;53.512;10.206;2024-01-10T07:16:09;20.23;;;11.68;;
45728;SDS011;31439;53.512;10.206;2024-01-10T07:18:35;22.50;;;11.68;;
45728;SDS011;31439;53.512;10.206;2024-01-10T07:21:01;21.23;;;12.23;;
45728;SDS011;31439;53.512;10.206;2024-01-10T07:23:27;21.92;;;12.07;;
45728;SDS011;31439;53.512;10.206;2024-01-10T07:25:53;22.05;;;11.95;;
45728;SDS011;31439;53.512;10.206;2024-01-10T07:28:19;19.02;;;11.48;;
45728;SDS011;31439;53.512;10.206;2024-01-10T07:30:45;20.88;;;11.80;;
45728;SDS011;31439;53.512;10.206;2024-01-10T07:33:11;24.55;;;12.05;;
45728;SDS011;31439;53.512;10.206;2024-01-10T07:35:37;19.75;;;11.55;;
45728;SDS011;31439;53.512;10.206;2024-01-10T07:38:06;21.58;;;12.55;;
45728;SDS011;31439;53.512;10.206;2024-01-10T07:40:33;19.80;;;11.77;;
45728;SDS011;31439;53.512;10.206;2024-01-10T07:42:59;20.80;;;11.18;;
45728;SDS011;31439;53.512;10.206;2024-01-10T07:45:25;21.15;;;10.73;;
45728;SDS011;31439;53.512;10.206;2024-01-10T07:47:51;20.42;;;10.68;;
45728;SDS011;31439;53.512;10.206;2024-01-10T07:50:17;19.85;;;9.93;;
45728;SDS011;31439;53.512;10.206;2024-01-10T07:52:44;17.65;;;10.32;;
45728;SDS011;31439;53.512;10.206;2024-01-10T07:55:11;16.38;;;9.60;;
45728;SDS011;31439;53.512;10.206;2024-01-10T07:57:37;18.50;;;10.25;;
45728;SDS011;31439;53.512;10.206;2024-01-10T08:00:04;15.52;;;9.18;;
45728;SDS011;31439;53.512;10.206;2024-01-10T08:02:30;15.32;;;9.40;;
45728;SDS011;31439;53.512;10.206;2024-01-10T08:04:59;14.52;;;8.25;;
45728;SDS011;31439;53.512;10.206;2024-01-10T08:07:25;14.20;;;8.98;;
45728;SDS011;31439;53.512;10.206;2024-01-10T08:09:51;16.15;;;9.00;;
45728;SDS011;31439;53.512;10.206;2024-01-10T08:12:17;16.65;;;9.30;;
45728;SDS011;31439;53.512;10.206;2024-01-10T08:14:43;17.30;;;8.60;;
45728;SDS011;31439;53.512;10.206;2024-01-10T08:17:15;15.18;;;8.90;;
45728;SDS011;31439;53.512;10.206;2024-01-10T08:19:41;15.52;;;8.70;;
45728;SDS011;31439;53.512;10.206;2024-01-10T08:22:07;15.20;;;8.57;;
45728;SDS011;31439;53.512;10.206;2024-01-10T08:24:33;16.40;;;9.40;;
45728;SDS011;31439;53.512;10.206;2024-01-10T08:26:59;14.32;;;8.60;;
45728;SDS011;31439;53.512;10.206;2024-01-10T08:29:25;14.63;;;8.43;;
45728;SDS011;31439;53.512;10.206;2024-01-10T08:31:56;15.52;;;8.25;;
45728;SDS011;31439;53.512;10.206;2024-01-10T08:34:22;14.15;;;8.00;;
45728;SDS011;31439;53.512;10.206;2024-01-10T08:36:48;12.65;;;8.10;;
45728;SDS011;31439;53.512;10.206;2024-01-10T08:39:16;12.98;;;7.85;;
45728;SDS011;31439;53.512;10.206;2024-01-10T08:41:44;14.80;;;7.65;;
45728;SDS011;31439;53.512;10.206;2024-01-10T08:44:12;14.05;;;8.07;;
45728;SDS011;31439;53.512;10.206;2024-01-10T08:46:38;13.00;;;7.45;;
45728;SDS011;31439;53.512;10.206;2024-01-10T08:49:04;12.02;;;7.60;;
45728;SDS011;31439;53.512;10.206;2024-01-10T08:51:30;14.43;;;7.95;;
45728;SDS011;31439;53.512;10.206;2024-01-10T08:53:56;13.40;;;7.97;;
45728;SDS011;31439;53.512;10.206;2024-01-10T08:56:22;14.80;;;8.35;;
45728;SDS011;31439;53.512;10.206;2024-01-10T08:58:49;12.82;;;7.63;;
45728;SDS011;31439;53.512;10.206;2024-01-10T09:01:15;15.88;;;8.63;;
45728;SDS011;31439;53.512;10.206;2024-01-10T09:03:41;15.48;;;8.77;;
45728;SDS011;31439;53.512;10.206;2024-01-10T09:06:07;14.23;;;8.43;;
45728;SDS011;31439;53.512;10.206;2024-01-10T09:08:36;15.85;;;8.52;;
45728;SDS011;31439;53.512;10.206;2024-01-10T09:11:02;16.83;;;8.73;;
45728;SDS011;31439;53.512;10.206;2024-01-10T09:13:28;18.63;;;9.23;;
45728;SDS011;31439;53.512;10.206;2024-01-10T09:15:55;18.63;;;9.43;;
45728;SDS011;31439;53.512;10.206;2024-01-10T09:18:21;17.10;;;8.93;;
45728;SDS011;31439;53.512;10.206;2024-01-10T09:20:47;17.15;;;9.43;;
45728;SDS011;31439;53.512;10.206;2024-01-10T09:23:13;17.00;;;9.55;;
45728;SDS011;31439;53.512;10.206;2024-01-10T09:25:40;16.83;;;9.35;;
45728;SDS011;31439;53.512;10.206;2024-01-10T09:28:06;16.83;;;8.75;;
45728;SDS011;31439;53.512;10.206;2024-01-10T09:30:32;16.38;;;8.55;;
45728;SDS011;31439;53.512;10.206;2024-01-10T09:32:59;15.18;;;8.15;;
45728;SDS011;31439;53.512;10.206;2024-01-10T09:35:25;14.20;;;8.02;;
45728;SDS011;31439;53.512;10.206;2024-01-10T09:37:51;13.63;;;8.02;;
45728;SDS011;31439;53.512;10.206;2024-01-10T09:40:18;13.68;;;8.18;;
45728;SDS011;31439;53.512;10.206;2024-01-10T09:42:47;15.90;;;9.02;;
45728;SDS011;31439;53.512;10.206;2024-01-10T09:45:16;17.05;;;9.18;;
45728;SDS011;31439;53.512;10.206;2024-01-10T09:47:43;14.52;;;7.63;;
45728;SDS011;31439;53.512;10.206;2024-01-10T09:50:10;14.38;;;8.25;;
45728;SDS011;31439;53.512;10.206;2024-01-10T09:52:41;15.68;;;9.00;;
45728;SDS011;31439;53.512;10.206;2024-01-10T09:55:07;13.95;;;8.77;;
45728;SDS011;31439;53.512;10.206;2024-01-10T09:57:34;14.45;;;8.68;;
45728;SDS011;31439;53.512;10.206;2024-01-10T10:00:01;13.68;;;8.43;;
45728;SDS011;31439;53.512;10.206;2024-01-10T10:02:29;12.98;;;7.38;;
45728;SDS011;31439;53.512;10.206;2024-01-10T10:05:04;13.25;;;7.50;;
45728;SDS011;31439;53.512;10.206;2024-01-10T10:10:28;13.10;;;7.50;;
45728;SDS011;31439;53.512;10.206;2024-01-10T10:12:54;13.48;;;7.80;;
45728;SDS011;31439;53.512;10.206;2024-01-10T10:15:21;13.70;;;7.88;;
45728;SDS011;31439;53.512;10.206;2024-01-10T10:17:48;12.75;;;7.43;;
45728;SDS011;31439;53.512;10.206;2024-01-10T10:20:19;11.35;;;7.63;;
45728;SDS011;31439;53.512;10.206;2024-01-10T10:22:57;12.38;;;7.32;;
45728;SDS011;31439;53.512;10.206;2024-01-10T10:25:33;11.57;;;7.13;;
45728;SDS011;31439;53.512;10.206;2024-01-10T10:27:59;12.23;;;7.13;;
45728;SDS011;31439;53.512;10.206;2024-01-10T10:30:26;12.90;;;7.63;;
45728;SDS011;31439;53.512;10.206;2024-01-10T10:32:53;13.63;;;8.02;;
45728;SDS011;31439;53.512;10.206;2024-01-10T10:35:20;13.35;;;7.57;;
45728;SDS011;31439;53.512;10.206;2024-01-10T10:37:47;13.15;;;7.95;;
45728;SDS011;31439;53.512;10.206;2024-01-10T10:40:14;13.07;;;7.60;;
45728;SDS011;31439;53.512;10.206;2024-01-10T10:42:42;13.27;;;7.53;;
45728;SDS011;31439;53.512;10.206;2024-01-10T10:45:09;15.68;;;8.60;;
45728;SDS011;31439;53.512;10.206;2024-01-10T10:47:38;13.70;;;8.20;;
45728;SDS011;31439;53.512;10.206;2024-01-10T10:50:08;13.40;;;7.93;;
45728;SDS011;31439;53.512;10.206;2024-01-10T10:52:38;13.25;;;7.30;;
45728;SDS011;31439;53.512;10.206;2024-01-10T10:55:06;11.80;;;7.30;;
45728;SDS011;31439;53.512;10.206;2024-01-10T10:57:32;12.10;;;7.57;;
45728;SDS011;31439;53.512;10.206;2024-01-10T10:59:59;14.27;;;8.38;;
45728;SDS011;31439;53.512;10.206;2024-01-10T11:02:25;12.98;;;8.13;;
45728;SDS011;31439;53.512;10.206;2024-01-10T11:04:53;12.07;;;6.80;;
45728;SDS011;31439;53.512;10.206;2024-01-10T11:07:20;13.15;;;7.35;;
45728;SDS011;31439;53.512;10.206;2024-01-10T11:09:46;13.88;;;7.93;;
45728;SDS011;31439;53.512;10.206;2024-01-10T11:14:53;17.90;;;8.85;;
45728;SDS011;31439;53.512;10.206;2024-01-10T11:17:34;17.02;;;9.63;;
45728;SDS011;31439;53.512;10.206;2024-01-10T11:20:13;13.52;;;8.10;;
45728;SDS011;31439;53.512;10.206;2024-01-10T11:22:43;12.85;;;8.00;;
45728;SDS011;31439;53.512;10.206;2024-01-10T11:25:11;19.38;;;10.40;;
45728;SDS011;31439;53.512;10.206;2024-01-10T11:27:37;19.63;;;9.85;;
45728;SDS011;31439;53.512;10.206;2024-01-10T11:30:03;17.15;;;9.60;;
45728;SDS011;31439;53.512;10.206;2024-01-10T11:32:31;15.82;;;9.23;;
45728;SDS011;31439;53.512;10.206;2024-01-10T11:35:00;17.80;;;10.70;;
45728;SDS011;31439;53.512;10.206;2024-01-10T11:37:39;18.67;;;10.32;;
45728;SDS011;31439;53.512;10.206;2024-01-10T11:40:08;23.60;;;10.95;;
45728;SDS011;31439;53.512;10.206;2024-01-10T11:42:41;20.52;;;11.55;;
45728;SDS011;31439;53.512;10.206;2024-01-10T11:45:07;20.30;;;11.25;;
45728;SDS011;31439;53.512;10.206;2024-01-10T11:47:33;17.48;;;10.20;;
45728;SDS011;31439;53.512;10.206;2024-01-10T11:50:01;17.52;;;9.30;;
45728;SDS011;31439;53.512;10.206;2024-01-10T11:52:34;22.55;;;11.35;;
45728;SDS011;31439;53.512;10.206;2024-01-10T11:55:00;22.23;;;10.82;;
45728;SDS011;31439;53.512;10.206;2024-01-10T11:57:27;17.38;;;10.02;;
45728;SDS011;31439;53.512;10.206;2024-01-10T11:59:54;18.02;;;10.00;;
45728;SDS011;31439;53.512;10.206;2024-01-10T12:02:20;17.55;;;10.27;;
45728;SDS011;31439;53.512;10.206;2024-01-10T12:04:47;17.00;;;9.52;;
45728;SDS011;31439;53.512;10.206;2024-01-10T12:07:13;20.27;;;10.13;;
45728;SDS011;31439;53.512;10.206;2024-01-10T12:09:40;17.15;;;9.02;;
45728;SDS011;31439;53.512;10.206;2024-01-10T12:12:09;14.35;;;7.75;;
45728;SDS011;31439;53.512;10.206;2024-01-10T12:14:38;13.13;;;7.22;;
45728;SDS011;31439;53.512;10.206;2024-01-10T12:17:04;12.90;;;6.70;;
45728;SDS011;31439;53.512;10.206;2024-01-10T12:19:31;11.23;;;7.10;;
45728;SDS011;31439;53.512;10.206;2024-01-10T12:21:57;11.23;;;7.28;;
45728;SDS011;31439;53.512;10.206;2024-01-10T12:24:23;12.18;;;6.65;;
45728;SDS011;31439;53.512;10.206;2024-01-10T12:26:49;9.95;;;6.15;;
45728;SDS011;31439;53.512;10.206;2024-01-10T12:29:19;9.98;;;6.30;;
45728;SDS011;31439;53.512;10.206;2024-01-10T12:31:45;10.80;;;6.05;;
45728;SDS011;31439;53.512;10.206;2024-01-10T12:34:11;8.90;;;5.70;;
45728;SDS011;31439;53.512;10.206;2024-01-10T12:36:37;9.68;;;5.85;;
45728;SDS011;31439;53.512;10.206;2024-01-10T12:39:03;10.07;;;6.15;;
45728;SDS011;31439;53.512;10.206;2024-01-10T12:41:32;12.20;;;6.40;;
45728;SDS011;31439;53.512;10.206;2024-01-10T12:43:58;9.45;;;6.13;;
45728;SDS011;31439;53.512;10.206;2024-01-10T12:46:27;10.48;;;6.43;;
45728;SDS011;31439;53.512;10.206;2024-01-10T12:49:00;9.68;;;5.72;;
45728;SDS011;31439;53.512;10.206;2024-01-10T12:51:27;11.07;;;6.45;;
45728;SDS011;31439;53.512;10.206;2024-01-10T12:53:54;9.23;;;6.47;;
45728;SDS011;31439;53.512;10.206;2024-01-10T12:56:21;10.60;;;6.47;;
45728;SDS011;31439;53.512;10.206;2024-01-10T12:58:47;9.55;;;5.93;;
45728;SDS011;31439;53.512;10.206;2024-01-10T13:01:13;9.88;;;6.40;;
45728;SDS011;31439;53.512;10.206;2024-01-10T13:03:40;10.77;;;5.97;;
45728;SDS011;31439;53.512;10.206;2024-01-10T13:06:06;9.60;;;5.82;;
45728;SDS011;31439;53.512;10.206;2024-01-10T13:08:32;9.55;;;6.28;;
45728;SDS011;31439;53.512;10.206;2024-01-10T13:10:58;12.68;;;6.60;;
45728;SDS011;31439;53.512;10.206;2024-01-10T13:13:29;9.98;;;6.55;;
45728;SDS011;31439;53.512;10.206;2024-01-10T13:15:55;11.40;;;6.78;;
45728;SDS011;31439;53.512;10.206;2024-01-10T13:18:21;11.85;;;7.20;;
45728;SDS011;31439;53.512;10.206;2024-01-10T13:20:47;11.00;;;6.93;;
45728;SDS011;31439;53.512;10.206;2024-01-10T13:23:13;10.38;;;6.70;;
45728;SDS011;31439;53.512;10.206;2024-01-10T13:25:40;12.82;;;7.15;;
45728;SDS011;31439;53.512;10.206;2024-01-10T13:28:06;13.40;;;7.30;;
45728;SDS011;31439;53.512;10.206;2024-01-10T13:30:32;13.43;;;8.02;;
45728;SDS011;31439;53.512;10.206;2024-01-10T13:32:58;12.25;;;7.82;;
45728;SDS011;31439;53.512;10.206;2024-01-10T13:35:24;13.10;;;7.85;;
45728;SDS011;31439;53.512;10.206;2024-01-10T13:37:50;12.80;;;7.65;;
45728;SDS011;31439;53.512;10.206;2024-01-10T13:40:16;14.10;;;7.47;;
45728;SDS011;31439;53.512;10.206;2024-01-10T13:42:45;11.77;;;7.05;;
45728;SDS011;31439;53.512;10.206;2024-01-10T13:45:11;11.68;;;7.32;;
45728;SDS011;31439;53.512;10.206;2024-01-10T13:47:37;11.65;;;7.15;;
45728;SDS011;31439;53.512;10.206;2024-01-10T13:50:04;14.48;;;7.13;;
45728;SDS011;31439;53.512;10.206;2024-01-10T13:52:31;10.50;;;6.25;;
45728;SDS011;31439;53.512;10.206;2024-01-10T13:54:57;10.90;;;6.65;;
45728;SDS011;31439;53.512;10.206;2024-01-10T13:57:23;11.10;;;6.15;;
45728;SDS011;31439;53.512;10.206;2024-01-10T13:59:49;10.05;;;6.53;;
45728;SDS011;31439;53.512;10.206;2024-01-10T14:02:15;12.68;;;6.55;;
45728;SDS011;31439;53.512;10.206;2024-01-10T14:04:43;10.02;;;6.03;;
45728;SDS011;31439;53.512;10.206;2024-01-10T14:07:10;9.43;;;5.82;;
45728;SDS011;31439;53.512;10.206;2024-01-10T14:09:36;10.50;;;5.43;;
45728;SDS011;31439;53.512;10.206;2024-01-10T14:12:02;10.55;;;5.65;;
45728;SDS011;31439;53.512;10.206;2024-01-10T14:14:28;11.75;;;7.00;;
45728;SDS011;31439;53.512;10.206;2024-01-10T14:16:54;10.80;;;6.88;;